createdAt,value
2023-05-14T00:01:08.241Z,101619.47
2023-05-14T00:05:19.820Z,101620.56
2023-05-14T00:09:32.705Z,101621.16
2023-05-14T00:13:44.464Z,101617.00
2023-05-14T00:17:56.157Z,101618.63
2023-05-14T00:22:08.970Z,101611.44
2023-05-14T00:26:21.538Z,101606.97
2023-05-14T00:30:33.437Z,101605.78
2023-05-14T00:34:45.084Z,101606.25
2023-05-14T00:38:56.792Z,101603.28
2023-05-14T00:43:08.399Z,101609.16
2023-05-14T00:47:20.142Z,101605.63
2023-05-14T00:51:31.807Z,101600.22
2023-05-14T00:55:43.516Z,101595.97
2023-05-14T00:59:55.643Z,101585.03
2023-05-14T01:04:08.196Z,101586.91
2023-05-14T01:08:41.854Z,101585.25
2023-05-14T01:13:07.805Z,101586.41
2023-05-14T01:17:22.975Z,101574.75
2023-05-14T01:21:38.630Z,101589.47
2023-05-14T01:25:50.363Z,101590.50
2023-05-14T01:30:57.190Z,101582.03
2023-05-14T01:35:10.375Z,101592.94
2023-05-14T01:39:23.716Z,101582.06
2023-05-14T01:43:36.103Z,101582.53
2023-05-14T01:47:48.074Z,101570.41
2023-05-14T01:51:59.775Z,101570.84
2023-05-14T01:56:11.447Z,101566.56
2023-05-14T02:00:27.536Z,101557.56
2023-05-14T02:04:39.199Z,101568.38
2023-05-14T02:08:50.950Z,101573.03
2023-05-14T02:13:03.953Z,101559.00
2023-05-14T02:17:17.711Z,101565.09
2023-05-14T02:21:29.336Z,101569.75
2023-05-14T02:25:41.000Z,101560.50
2023-05-14T02:29:52.901Z,101568.84
2023-05-14T02:34:06.677Z,101559.00
2023-05-14T02:38:18.759Z,101561.97
2023-05-14T02:42:30.463Z,101561.31
2023-05-14T02:46:42.913Z,101554.34
2023-05-14T02:50:54.619Z,101543.81
2023-05-14T02:55:06.713Z,101542.22
2023-05-14T02:59:18.444Z,101543.09
2023-05-14T03:03:31.011Z,101541.72
2023-05-14T03:07:43.201Z,101544.25
2023-05-14T03:11:55.036Z,101537.63
2023-05-14T03:16:06.826Z,101538.13
2023-05-14T03:20:18.572Z,101539.41
2023-05-14T03:24:31.552Z,101517.47
2023-05-14T03:28:44.161Z,101536.50
2023-05-14T03:32:55.915Z,101527.06
2023-05-14T03:37:07.613Z,101513.63
2023-05-14T03:41:20.069Z,101518.22
2023-05-14T03:45:32.378Z,101519.25
2023-05-14T03:49:44.127Z,101512.44
2023-05-14T03:54:01.280Z,101521.72
2023-05-14T03:58:14.048Z,101514.69
2023-05-14T04:02:25.924Z,101503.97
2023-05-14T04:06:37.657Z,101511.22
2023-05-14T04:10:49.997Z,101513.94
2023-05-14T04:15:01.850Z,101520.53
2023-05-14T04:19:14.020Z,101516.63
2023-05-14T04:23:26.875Z,101518.28
2023-05-14T04:27:38.489Z,101515.16
2023-05-14T04:31:50.119Z,101522.84
2023-05-14T04:36:02.016Z,101518.22
2023-05-14T04:40:13.708Z,101516.53
2023-05-14T04:44:26.249Z,101520.56
2023-05-14T04:48:37.824Z,101512.59
2023-05-14T04:52:49.412Z,101510.00
2023-05-14T04:57:03.983Z,101510.91
2023-05-14T05:01:15.885Z,101519.25
2023-05-14T05:05:27.505Z,101530.25
2023-05-14T05:09:39.172Z,101526.25
2023-05-14T05:13:50.708Z,101530.50
2023-05-14T05:18:02.385Z,101538.16
2023-05-14T05:22:14.023Z,101540.34
2023-05-14T05:26:27.052Z,101537.91
2023-05-14T05:30:38.802Z,101523.75
2023-05-14T05:34:51.961Z,101536.59
2023-05-14T05:39:03.739Z,101535.03
2023-05-14T05:43:15.637Z,101535.97
2023-05-14T05:47:27.414Z,101550.75
2023-05-14T05:51:39.118Z,101556.72
2023-05-14T05:55:53.648Z,101552.06
2023-05-14T06:00:15.326Z,101552.25
2023-05-14T06:04:26.904Z,101556.69
2023-05-14T06:08:38.495Z,101550.16
2023-05-14T06:12:50.395Z,101549.16
2023-05-14T06:17:02.261Z,101547.88
2023-05-14T06:21:14.048Z,101555.59
2023-05-14T06:25:25.754Z,101545.56
2023-05-14T06:29:38.065Z,101554.88
2023-05-14T06:33:49.848Z,101553.22
2023-05-14T06:38:01.537Z,101558.81
2023-05-14T06:42:13.141Z,101553.66
2023-05-14T06:46:24.761Z,101546.50
2023-05-14T06:50:36.394Z,101555.28
2023-05-14T06:54:48.043Z,101553.84
2023-05-14T06:58:59.715Z,101544.28
2023-05-14T07:03:11.471Z,101542.63
2023-05-14T07:07:23.273Z,101550.03
2023-05-14T07:11:34.981Z,101542.75
2023-05-14T07:15:46.655Z,101534.06
2023-05-14T07:19:58.346Z,101541.16
2023-05-14T07:24:10.034Z,101546.03
2023-05-14T07:28:21.636Z,101544.00
2023-05-14T07:32:33.364Z,101533.78
2023-05-14T07:36:45.411Z,101533.25
2023-05-14T07:40:57.123Z,101539.34
2023-05-14T07:45:09.888Z,101529.66
2023-05-14T07:49:21.526Z,101530.34
2023-05-14T07:53:33.188Z,101527.75
2023-05-14T07:57:45.670Z,101517.34
2023-05-14T08:01:57.531Z,101524.97
2023-05-14T08:06:09.378Z,101532.28
2023-05-14T08:10:21.264Z,101520.47
2023-05-14T08:14:33.245Z,101520.34
2023-05-14T08:18:44.944Z,101515.50
2023-05-14T08:22:58.072Z,101523.59
2023-05-14T08:27:09.924Z,101515.16
2023-05-14T08:31:21.595Z,101516.78
2023-05-14T08:35:33.308Z,101522.91
2023-05-14T08:39:45.050Z,101526.69
2023-05-14T08:44:12.976Z,101519.16
2023-05-14T08:48:29.090Z,101526.72
2023-05-14T08:52:41.006Z,101518.53
2023-05-14T08:56:53.231Z,101511.47
2023-05-14T09:01:04.974Z,101512.53
2023-05-14T09:05:17.777Z,101510.44
2023-05-14T09:09:30.000Z,101516.06
2023-05-14T09:13:41.692Z,101501.13
2023-05-14T09:17:53.587Z,101494.84
2023-05-14T09:22:09.403Z,101490.06
2023-05-14T09:26:24.103Z,101486.34
2023-05-14T09:30:37.072Z,101475.13
2023-05-14T09:34:48.735Z,101468.06
2023-05-14T09:39:00.849Z,101460.69
2023-05-14T09:43:13.031Z,101463.59
2023-05-14T09:47:24.885Z,101471.34
2023-05-14T09:51:38.483Z,101457.09
2023-05-14T09:55:50.171Z,101463.25
2023-05-14T10:00:01.911Z,101457.50
2023-05-14T10:04:16.442Z,101444.72
2023-05-14T10:08:33.599Z,101443.13
2023-05-14T10:12:57.109Z,101443.59
2023-05-14T10:17:18.114Z,101443.81
2023-05-14T10:21:32.117Z,101451.31
2023-05-14T10:25:43.968Z,101430.81
2023-05-14T10:29:56.157Z,101431.59
2023-05-14T10:34:37.990Z,101428.34
2023-05-14T10:38:57.244Z,101430.88
2023-05-14T10:43:11.326Z,101412.66
2023-05-14T10:47:23.059Z,101409.16
2023-05-14T10:51:36.412Z,101411.28
2023-05-14T10:55:48.202Z,101408.06
2023-05-14T11:00:01.314Z,101410.19
2023-05-14T11:04:19.338Z,101400.91
2023-05-14T11:08:32.572Z,101396.47
2023-05-14T11:12:47.664Z,101393.13
2023-05-14T11:16:59.365Z,101390.47
2023-05-14T11:21:11.101Z,101380.56
2023-05-14T11:25:25.735Z,101394.75
2023-05-14T11:29:38.119Z,101393.69
2023-05-14T11:33:49.687Z,101385.72
2023-05-14T11:38:01.301Z,101381.84
2023-05-14T11:42:14.732Z,101360.63
2023-05-14T11:46:26.475Z,101370.50
2023-05-14T11:50:38.161Z,101362.56
2023-05-14T11:54:50.926Z,101374.16
2023-05-14T11:59:02.774Z,101368.94
2023-05-14T12:03:14.479Z,101362.69
2023-05-14T12:07:30.428Z,101355.78
2023-05-14T12:11:42.068Z,101345.69
2023-05-14T12:15:58.459Z,101360.53
2023-05-14T12:20:11.658Z,101323.13
2023-05-14T12:24:25.637Z,101333.91
2023-05-14T12:28:43.361Z,101331.47
2023-05-14T12:32:55.478Z,101334.88
2023-05-14T12:37:07.382Z,101339.75
2023-05-14T12:41:19.075Z,101333.28
2023-05-14T12:45:30.942Z,101338.28
2023-05-14T12:49:42.549Z,101335.97
2023-05-14T12:53:54.296Z,101336.50
2023-05-14T12:58:05.904Z,101334.09
2023-05-14T13:02:18.790Z,101324.53
2023-05-14T13:06:31.710Z,101321.78
2023-05-14T13:10:47.084Z,101321.56
2023-05-14T13:14:58.751Z,101309.81
2023-05-14T13:19:10.479Z,101312.94
2023-05-14T13:23:22.312Z,101313.78
2023-05-14T13:27:35.797Z,101316.84
2023-05-14T13:31:47.432Z,101299.81
2023-05-14T13:35:59.077Z,101302.41
2023-05-14T13:40:11.187Z,101308.91
2023-05-14T13:44:23.033Z,101294.44
2023-05-14T13:48:35.934Z,101282.91
2023-05-14T13:52:47.640Z,101271.53
2023-05-14T13:56:59.258Z,101278.81
2023-05-14T14:01:10.965Z,101289.53
2023-05-14T14:05:23.987Z,101271.84
2023-05-14T14:09:36.981Z,101264.56
2023-05-14T14:13:48.732Z,101256.09
2023-05-14T14:18:00.524Z,101262.13
2023-05-14T14:22:14.053Z,101255.47
2023-05-14T14:26:27.914Z,101235.63
2023-05-14T14:30:39.780Z,101244.22
2023-05-14T14:34:51.389Z,101241.16
2023-05-14T14:39:03.058Z,101250.84
2023-05-14T14:43:14.717Z,101238.00
2023-05-14T14:47:26.341Z,101232.66
2023-05-14T14:51:38.086Z,101227.00
2023-05-14T14:55:50.476Z,101216.06
2023-05-14T15:00:02.647Z,101230.88
2023-05-14T15:04:14.536Z,101232.19
2023-05-14T15:08:30.154Z,101231.84
2023-05-14T15:12:41.841Z,101231.66
2023-05-14T15:16:54.049Z,101234.84
2023-05-14T15:21:05.910Z,101229.09
2023-05-14T15:25:17.938Z,101234.59
2023-05-14T15:29:29.625Z,101232.78
2023-05-14T15:33:41.872Z,101229.91
2023-05-14T15:37:59.285Z,101234.28
2023-05-14T15:42:10.915Z,101228.16
2023-05-14T15:46:23.632Z,101219.63
2023-05-14T15:50:35.335Z,101207.72
2023-05-14T15:54:47.204Z,101219.94
2023-05-14T15:58:58.911Z,101208.63
2023-05-14T16:03:11.131Z,101215.75
2023-05-14T16:07:23.033Z,101219.28
2023-05-14T16:11:34.698Z,101220.50
2023-05-14T16:15:46.966Z,101218.50
2023-05-14T16:20:00.874Z,101212.94
2023-05-14T16:24:12.823Z,101222.31
2023-05-14T16:28:24.527Z,101220.81
2023-05-14T16:32:36.210Z,101208.41
2023-05-14T16:36:47.948Z,101214.63
2023-05-14T16:41:00.362Z,101220.50
2023-05-14T16:45:12.102Z,101211.78
2023-05-14T16:49:23.768Z,101212.22
2023-05-14T16:53:36.062Z,101209.13
2023-05-14T16:57:47.763Z,101209.84
2023-05-14T17:01:59.559Z,101213.84
2023-05-14T17:06:11.448Z,101222.66
2023-05-14T17:10:25.258Z,101223.47
2023-05-14T17:14:36.923Z,101212.94
2023-05-14T17:18:49.181Z,101220.41
2023-05-14T17:23:00.912Z,101223.75
2023-05-14T17:27:13.807Z,101223.81
2023-05-14T17:31:27.001Z,101217.84
2023-05-14T17:35:38.901Z,101227.81
2023-05-14T17:39:51.115Z,101212.03
2023-05-14T17:44:02.818Z,101225.53
2023-05-14T17:48:14.518Z,101220.22
2023-05-14T17:52:26.324Z,101224.41
2023-05-14T17:56:38.155Z,101209.81
2023-05-14T18:00:49.859Z,101223.41
2023-05-14T18:05:02.792Z,101243.22
2023-05-14T18:09:15.285Z,101250.41
2023-05-14T18:13:26.942Z,101248.28
2023-05-14T18:17:38.631Z,101245.59
2023-05-14T18:21:50.822Z,101246.19
2023-05-14T18:26:02.699Z,101247.06
2023-05-14T18:30:15.997Z,101235.97
2023-05-14T18:34:27.709Z,101252.31
2023-05-14T18:38:40.842Z,101250.44
2023-05-14T18:42:52.537Z,101239.00
2023-05-14T18:47:04.399Z,101256.72
2023-05-14T18:51:16.133Z,101257.50
2023-05-14T18:55:27.805Z,101255.31
2023-05-14T18:59:39.495Z,101258.25
2023-05-14T19:03:52.933Z,101256.25
2023-05-14T19:08:04.829Z,101254.84
2023-05-14T19:12:16.678Z,101259.31
2023-05-14T19:16:28.465Z,101260.59
2023-05-14T19:20:40.297Z,101266.19
2023-05-14T19:24:51.957Z,101265.25
2023-05-14T19:29:03.613Z,101267.88
2023-05-14T19:33:15.435Z,101258.47
2023-05-14T19:37:27.304Z,101260.75
2023-05-14T19:41:39.061Z,101270.69
2023-05-14T19:45:50.800Z,101275.56
2023-05-14T19:50:02.516Z,101264.44
2023-05-14T19:54:14.749Z,101276.44
2023-05-14T19:58:26.684Z,101258.03
2023-05-14T20:02:40.491Z,101269.88
2023-05-14T20:06:52.761Z,101262.72
2023-05-14T20:11:04.638Z,101266.38
2023-05-14T20:15:16.333Z,101264.34
2023-05-14T20:19:27.993Z,101270.19
2023-05-14T20:23:39.741Z,101264.19
2023-05-14T20:27:52.508Z,101255.81
2023-05-14T20:32:04.405Z,101251.72
2023-05-14T20:36:16.188Z,101254.44
2023-05-14T20:40:27.908Z,101255.28
2023-05-14T20:44:40.012Z,101273.50
2023-05-14T20:48:54.533Z,101263.81
2023-05-14T20:53:06.424Z,101269.81
2023-05-14T20:57:18.917Z,101261.50
2023-05-14T21:01:30.656Z,101261.91
2023-05-14T21:05:43.724Z,101263.72
2023-05-14T21:09:55.481Z,101250.00
2023-05-14T21:14:07.123Z,101250.84
2023-05-14T21:18:18.824Z,101254.59
2023-05-14T21:22:30.582Z,101245.25
2023-05-14T21:26:42.538Z,101252.31
2023-05-14T21:30:54.173Z,101237.44
2023-05-14T21:35:06.324Z,101228.28
2023-05-14T21:39:18.037Z,101252.72
2023-05-14T21:43:29.707Z,101249.34
2023-05-14T21:47:41.466Z,101252.91
2023-05-14T21:51:56.398Z,101240.22
2023-05-14T21:56:08.315Z,101246.44
2023-05-14T22:00:23.504Z,101224.69
2023-05-14T22:04:35.448Z,101232.91
2023-05-14T22:08:47.256Z,101226.69
2023-05-14T22:12:59.032Z,101232.91
2023-05-14T22:17:12.702Z,101219.78
2023-05-14T22:21:24.348Z,101219.69
2023-05-14T22:25:36.093Z,101227.56
2023-05-14T22:29:47.713Z,101230.84
2023-05-14T22:33:59.363Z,101232.16
2023-05-14T22:38:11.023Z,101232.16
2023-05-14T22:42:22.693Z,101211.00
2023-05-14T22:46:34.391Z,101207.38
2023-05-14T22:50:46.055Z,101208.69
2023-05-14T22:54:57.640Z,101221.50
2023-05-14T22:59:09.346Z,101228.88
2023-05-14T23:03:21.109Z,101210.09
2023-05-14T23:07:32.859Z,101216.41
2023-05-14T23:11:44.474Z,101216.69
2023-05-14T23:15:56.214Z,101206.31
2023-05-14T23:20:10.787Z,101202.72
2023-05-14T23:24:22.565Z,101199.75
2023-05-14T23:28:34.211Z,101174.97
2023-05-14T23:32:46.031Z,101184.00
2023-05-14T23:36:57.770Z,101170.16
2023-05-14T23:41:09.534Z,101185.66
2023-05-14T23:45:21.181Z,101187.31
2023-05-14T23:49:32.857Z,101170.03
2023-05-14T23:53:44.573Z,101161.22
2023-05-14T23:57:56.254Z,101157.22
